sensor_id;sensor_type;location;lat;lon;timestamp;pressure;altitude;pressure_sealevel;temperature;humidity
76022;BME280;64718;52.124;6.226;2023-04-02T00:00:19;101165.59;;;5.20;100.00
76022;BME280;64718;52.124;6.226;2023-04-02T00:02:47;101172.50;;;5.21;100.00
76022;BME280;64718;52.124;6.226;2023-04-02T00:05:43;101175.91;;;5.20;100.00
76022;BME280;64718;52.124;6.226;2023-04-02T00:08:28;101176.81;;;5.20;100.00
76022;BME280;64718;52.124;6.226;2023-04-02T00:11:03;101175.94;;;5.18;100.00
76022;BME280;64718;52.124;6.226;2023-04-02T00:13:34;101181.06;;;5.20;100.00
76022;BME280;64718;52.124;6.226;2023-04-02T00:16:04;101190.53;;;5.22;100.00
76022;BME280;64718;52.124;6.226;2023-04-02T00:18:33;101195.66;;;5.24;100.00
76022;BME280;64718;52.124;6.226;2023-04-02T00:21:09;101201.72;;;5.21;100.00
76022;BME280;64718;52.124;6.226;2023-04-02T00:23:40;101191.41;;;5.20;100.00
76022;BME280;64718;52.124;6.226;2023-04-02T00:26:20;101212.06;;;5.17;100.00
76022;BME280;64718;52.124;6.226;2023-04-02T00:28:47;101209.50;;;5.15;100.00
76022;BME280;64718;52.124;6.226;2023-04-02T00:31:16;101221.56;;;5.15;100.00
76022;BME280;64718;52.124;6.226;2023-04-02T00:33:43;101223.28;;;5.13;100.00
76022;BME280;64718;52.124;6.226;2023-04-02T00:36:11;101228.47;;;5.11;100.00
76022;BME280;64718;52.124;6.226;2023-04-02T00:38:39;101236.22;;;5.09;100.00
76022;BME280;64718;52.124;6.226;2023-04-02T00:41:13;101237.97;;;5.07;100.00
76022;BME280;64718;52.124;6.226;2023-04-02T00:43:43;101238.00;;;5.06;100.00
76022;BME280;64718;52.124;6.226;2023-04-02T00:46:14;101250.03;;;5.05;100.00
76022;BME280;64718;52.124;6.226;2023-04-02T00:48:44;101246.66;;;5.02;100.00
76022;BME280;64718;52.124;6.226;2023-04-02T00:51:18;101258.69;;;5.01;100.00
76022;BME280;64718;52.124;6.226;2023-04-02T00:53:49;101252.69;;;4.99;100.00
76022;BME280;64718;52.124;6.226;2023-04-02T00:56:22;101263.88;;;4.98;100.00
76022;BME280;64718;52.124;6.226;2023-04-02T00:58:52;101271.66;;;4.95;100.00
76022;BME280;64718;52.124;6.226;2023-04-02T01:01:23;101269.97;;;4.91;100.00
76022;BME280;64718;52.124;6.226;2023-04-02T01:03:54;101269.97;;;4.93;100.00
76022;BME280;64718;52.124;6.226;2023-04-02T01:06:23;101276.03;;;4.89;100.00
76022;BME280;64718;52.124;6.226;2023-04-02T01:09:05;101272.63;;;4.87;100.00
76022;BME280;64718;52.124;6.226;2023-04-02T01:11:55;101279.53;;;4.85;100.00
76022;BME280;64718;52.124;6.226;2023-04-02T01:14:36;101276.97;;;4.83;100.00
76022;BME280;64718;52.124;6.226;2023-04-02T01:17:24;101288.16;;;4.81;100.00
76022;BME280;64718;52.124;6.226;2023-04-02T01:20:23;101295.06;;;4.79;100.00
76022;BME280;64718;52.124;6.226;2023-04-02T01:22:59;101305.41;;;4.75;100.00
76022;BME280;64718;52.124;6.226;2023-04-02T01:25:39;101302.84;;;4.74;100.00
76022;BME280;64718;52.124;6.226;2023-04-02T01:28:12;101316.59;;;4.73;100.00
76022;BME280;64718;52.124;6.226;2023-04-02T01:30:50;101310.56;;;4.74;100.00
76022;BME280;64718;52.124;6.226;2023-04-02T01:33:18;101314.00;;;4.74;100.00
76022;BME280;64718;52.124;6.226;2023-04-02T01:35:47;101320.00;;;4.75;100.00
76022;BME280;64718;52.124;6.226;2023-04-02T01:38:20;101327.72;;;4.75;100.00
76022;BME280;64718;52.124;6.226;2023-04-02T01:40:57;101336.31;;;4.75;100.00
76022;BME280;64718;52.124;6.226;2023-04-02T01:43:32;101337.19;;;4.74;100.00
76022;BME280;64718;52.124;6.226;2023-04-02T01:46:22;101346.63;;;4.74;100.00
76022;BME280;64718;52.124;6.226;2023-04-02T01:48:51;101349.22;;;4.72;100.00
76022;BME280;64718;52.124;6.226;2023-04-02T01:51:25;101356.13;;;4.70;100.00
76022;BME280;64718;52.124;6.226;2023-04-02T01:53:52;101360.44;;;4.68;100.00
76022;BME280;64718;52.124;6.226;2023-04-02T01:56:19;101357.88;;;4.67;100.00
76022;BME280;64718;52.124;6.226;2023-04-02T01:58:47;101375.03;;;4.68;100.00
76022;BME280;64718;52.124;6.226;2023-04-02T02:01:17;101374.19;;;4.66;100.00
76022;BME280;64718;52.124;6.226;2023-04-02T02:03:46;101378.50;;;4.64;100.00
76022;BME280;64718;52.124;6.226;2023-04-02T02:06:14;101385.38;;;4.65;100.00
76022;BME280;64718;52.124;6.226;2023-04-02T02:08:45;101387.13;;;4.63;100.00
76022;BME280;64718;52.124;6.226;2023-04-02T02:11:14;101395.66;;;4.66;100.00
76022;BME280;64718;52.124;6.226;2023-04-02T02:13:45;101399.97;;;4.66;100.00
76022;BME280;64718;52.124;6.226;2023-04-02T02:16:14;101403.44;;;4.63;100.00
76022;BME280;64718;52.124;6.226;2023-04-02T02:18:45;101402.59;;;4.58;100.00
76022;BME280;64718;52.124;6.226;2023-04-02T02:21:37;101410.31;;;4.57;100.00
76022;BME280;64718;52.124;6.226;2023-04-02T02:24:08;101418.97;;;4.50;100.00
76022;BME280;64718;52.124;6.226;2023-04-02T02:26:41;101410.44;;;4.43;100.00
76022;BME280;64718;52.124;6.226;2023-04-02T02:29:11;101420.75;;;4.41;100.00
76022;BME280;64718;52.124;6.226;2023-04-02T02:31:41;101429.38;;;4.37;100.00
76022;BME280;64718;52.124;6.226;2023-04-02T02:34:15;101433.69;;;4.34;100.00
76022;BME280;64718;52.124;6.226;2023-04-02T02:36:48;101441.44;;;4.29;100.00
76022;BME280;64718;52.124;6.226;2023-04-02T02:39:21;101437.19;;;4.25;100.00
76022;BME280;64718;52.124;6.226;2023-04-02T02:41:53;101445.78;;;4.23;100.00
76022;BME280;64718;52.124;6.226;2023-04-02T02:44:23;101462.97;;;4.19;100.00
76022;BME280;64718;52.124;6.226;2023-04-02T02:46:53;101458.72;;;4.17;100.00
76022;BME280;64718;52.124;6.226;2023-04-02T02:49:25;101467.28;;;4.16;100.00
76022;BME280;64718;52.124;6.226;2023-04-02T02:51:57;101469.88;;;4.12;100.00
76022;BME280;64718;52.124;6.226;2023-04-02T02:54:26;101477.63;;;4.11;100.00
76022;BME280;64718;52.124;6.226;2023-04-02T02:56:57;101470.78;;;4.07;100.00
76022;BME280;64718;52.124;6.226;2023-04-02T02:59:26;101486.19;;;4.15;100.00
76022;BME280;64718;52.124;6.226;2023-04-02T03:01:55;101493.03;;;4.16;100.00
76022;BME280;64718;52.124;6.226;2023-04-02T03:04:24;101488.72;;;4.18;100.00
76022;BME280;64718;52.124;6.226;2023-04-02T03:06:52;101495.59;;;4.17;100.00
76022;BME280;64718;52.124;6.226;2023-04-02T03:09:25;101503.31;;;4.20;100.00
76022;BME280;64718;52.124;6.226;2023-04-02T03:12:01;101501.59;;;4.21;100.00
76022;BME280;64718;52.124;6.226;2023-04-02T03:14:32;101515.34;;;4.15;100.00
76022;BME280;64718;52.124;6.226;2023-04-02T03:17:07;101507.66;;;4.07;100.00
76022;BME280;64718;52.124;6.226;2023-04-02T03:19:39;101521.38;;;4.03;100.00
76022;BME280;64718;52.124;6.226;2023-04-02T03:22:13;101524.84;;;3.99;100.00
76022;BME280;64718;52.124;6.226;2023-04-02T03:24:48;101530.84;;;3.98;100.00
76022;BME280;64718;52.124;6.226;2023-04-02T03:27:19;101539.44;;;3.97;100.00
76022;BME280;64718;52.124;6.226;2023-04-02T03:29:56;101526.56;;;3.96;100.00
76022;BME280;64718;52.124;6.226;2023-04-02T03:32:27;101553.19;;;3.90;100.00
76022;BME280;64718;52.124;6.226;2023-04-02T03:35:00;101557.50;;;3.87;100.00
76022;BME280;64718;52.124;6.226;2023-04-02T03:37:31;101561.78;;;3.83;100.00
76022;BME280;64718;52.124;6.226;2023-04-02T03:40:01;101560.94;;;3.81;100.00
76022;BME280;64718;52.124;6.226;2023-04-02T03:42:38;101567.81;;;3.79;100.00
76022;BME280;64718;52.124;6.226;2023-04-02T03:45:12;101569.53;;;3.75;100.00
76022;BME280;64718;52.124;6.226;2023-04-02T03:47:42;101576.41;;;3.73;100.00
76022;BME280;64718;52.124;6.226;2023-04-02T03:50:18;101581.56;;;3.70;100.00
76022;BME280;64718;52.124;6.226;2023-04-02T03:52:47;101587.56;;;3.66;100.00
76022;BME280;64718;52.124;6.226;2023-04-02T03:55:17;101591.00;;;3.62;100.00
76022;BME280;64718;52.124;6.226;2023-04-02T03:57:52;101606.44;;;3.58;100.00
76022;BME280;64718;52.124;6.226;2023-04-02T04:00:29;101603.88;;;3.55;100.00
76022;BME280;64718;52.124;6.226;2023-04-02T04:03:02;101613.31;;;3.51;100.00
76022;BME280;64718;52.124;6.226;2023-04-02T04:05:36;101613.31;;;3.49;100.00
76022;BME280;64718;52.124;6.226;2023-04-02T04:08:07;101623.56;;;3.46;100.00
76022;BME280;64718;52.124;6.226;2023-04-02T04:10:39;101625.28;;;3.38;100.00
76022;BME280;64718;52.124;6.226;2023-04-02T04:13:11;101636.44;;;3.36;100.00
76022;BME280;64718;52.124;6.226;2023-04-02T04:15:40;101656.16;;;3.28;100.00
76022;BME280;64718;52.124;6.226;2023-04-02T04:18:14;101666.44;;;3.23;100.00
76022;BME280;64718;52.124;6.226;2023-04-02T04:20:49;101670.72;;;3.21;100.00
76022;BME280;64718;52.124;6.226;2023-04-02T04:23:24;101672.41;;;3.11;100.00
76022;BME280;64718;52.124;6.226;2023-04-02T04:25:59;101674.13;;;3.08;100.00
76022;BME280;64718;52.124;6.226;2023-04-02T04:28:33;101679.25;;;3.03;100.00
76022;BME280;64718;52.124;6.226;2023-04-02T04:31:10;101682.69;;;3.01;100.00
76022;BME280;64718;52.124;6.226;2023-04-02T04:33:44;101685.25;;;2.98;100.00
76022;BME280;64718;52.124;6.226;2023-04-02T04:36:20;101688.66;;;2.94;100.00
76022;BME280;64718;52.124;6.226;2023-04-02T04:38:54;101699.78;;;2.91;100.00
76022;BME280;64718;52.124;6.226;2023-04-02T04:41:27;101699.75;;;2.88;100.00
76022;BME280;64718;52.124;6.226;2023-04-02T04:43:58;101716.88;;;2.88;100.00
76022;BME280;64718;52.124;6.226;2023-04-02T04:46:31;101722.00;;;2.86;100.00
76022;BME280;64718;52.124;6.226;2023-04-02T04:49:04;101722.84;;;2.83;100.00
76022;BME280;64718;52.124;6.226;2023-04-02T04:51:38;101728.00;;;2.80;100.00
76022;BME280;64718;52.124;6.226;2023-04-02T04:54:10;101720.28;;;2.77;100.00
76022;BME280;64718;52.124;6.226;2023-04-02T04:56:38;101729.69;;;2.80;100.00
76022;BME280;64718;52.124;6.226;2023-04-02T04:59:13;101736.53;;;2.78;100.00
76022;BME280;64718;52.124;6.226;2023-04-02T05:01:41;101739.09;;;2.72;100.00
76022;BME280;64718;52.124;6.226;2023-04-02T05:04:14;101740.78;;;2.68;100.00
76022;BME280;64718;52.124;6.226;2023-04-02T05:06:48;101756.19;;;2.65;100.00
76022;BME280;64718;52.124;6.226;2023-04-02T05:09:22;101766.44;;;2.64;100.00
76022;BME280;64718;52.124;6.226;2023-04-02T05:11:57;101769.88;;;2.63;100.00
76022;BME280;64718;52.124;6.226;2023-04-02T05:14:30;101781.00;;;2.62;100.00
76022;BME280;64718;52.124;6.226;2023-04-02T05:17:03;101780.13;;;2.58;100.00
76022;BME280;64718;52.124;6.226;2023-04-02T05:19:34;101788.66;;;2.52;100.00
76022;BME280;64718;52.124;6.226;2023-04-02T05:22:12;101801.47;;;2.51;100.00
76022;BME280;64718;52.124;6.226;2023-04-02T05:24:50;101804.06;;;2.52;100.00
76022;BME280;64718;52.124;6.226;2023-04-02T05:27:24;101814.31;;;2.52;100.00
76022;BME280;64718;52.124;6.226;2023-04-02T05:29:56;101822.03;;;2.56;100.00
76022;BME280;64718;52.124;6.226;2023-04-02T05:32:29;101827.16;;;2.52;100.00
76022;BME280;64718;52.124;6.226;2023-04-02T05:34:57;101834.84;;;2.51;100.00
76022;BME280;64718;52.124;6.226;2023-04-02T05:37:29;101842.53;;;2.48;100.00
76022;BME280;64718;52.124;6.226;2023-04-02T05:39:57;101851.06;;;2.42;100.00
76022;BME280;64718;52.124;6.226;2023-04-02T05:42:26;101863.00;;;2.36;100.00
76022;BME280;64718;52.124;6.226;2023-04-02T05:45:02;101858.69;;;2.32;100.00
76022;BME280;64718;52.124;6.226;2023-04-02T05:47:31;101873.25;;;2.36;100.00
76022;BME280;64718;52.124;6.226;2023-04-02T05:50:16;101873.22;;;2.33;100.00
76022;BME280;64718;52.124;6.226;2023-04-02T05:52:49;101874.91;;;2.31;100.00
76022;BME280;64718;52.124;6.226;2023-04-02T05:55:31;101887.69;;;2.26;100.00
76022;BME280;64718;52.124;6.226;2023-04-02T05:58:03;101891.97;;;2.27;100.00
76022;BME280;64718;52.124;6.226;2023-04-02T06:00:49;101898.81;;;2.25;100.00
76022;BME280;64718;52.124;6.226;2023-04-02T06:03:23;101909.09;;;2.28;100.00
76022;BME280;64718;52.124;6.226;2023-04-02T06:05:53;101906.50;;;2.23;100.00
76022;BME280;64718;52.124;6.226;2023-04-02T06:08:25;101910.75;;;2.20;100.00
76022;BME280;64718;52.124;6.226;2023-04-02T06:11:00;101925.31;;;2.26;100.00
76022;BME280;64718;52.124;6.226;2023-04-02T06:13:29;101931.34;;;2.28;100.00
76022;BME280;64718;52.124;6.226;2023-04-02T06:15:56;101933.88;;;2.26;100.00
76022;BME280;64718;52.124;6.226;2023-04-02T06:18:24;101939.91;;;2.30;100.00
76022;BME280;64718;52.124;6.226;2023-04-02T06:20:51;101948.44;;;2.27;100.00
76022;BME280;64718;52.124;6.226;2023-04-02T06:23:20;101950.16;;;2.27;100.00
76022;BME280;64718;52.124;6.226;2023-04-02T06:25:52;101954.53;;;2.34;100.00
76022;BME280;64718;52.124;6.226;2023-04-02T06:28:25;101955.31;;;2.31;100.00
76022;BME280;64718;52.124;6.226;2023-04-02T06:30:56;101958.84;;;2.39;100.00
76022;BME280;64718;52.124;6.226;2023-04-02T06:33:24;101964.00;;;2.42;100.00
76022;BME280;64718;52.124;6.226;2023-04-02T06:35:51;101968.28;;;2.40;100.00
76022;BME280;64718;52.124;6.226;2023-04-02T06:38:23;101973.47;;;2.48;100.00
76022;BME280;64718;52.124;6.226;2023-04-02T06:40:54;101976.09;;;2.54;100.00
76022;BME280;64718;52.124;6.226;2023-04-02T06:43:26;101979.53;;;2.56;100.00
76022;BME280;64718;52.124;6.226;2023-04-02T06:45:58;101993.28;;;2.63;100.00
76022;BME280;64718;52.124;6.226;2023-04-02T06:48:28;101991.56;;;2.60;100.00
76022;BME280;64718;52.124;6.226;2023-04-02T06:50:56;101993.34;;;2.69;100.00
76022;BME280;64718;52.124;6.226;2023-04-02T06:53:28;102005.34;;;2.71;100.00
76022;BME280;64718;52.124;6.226;2023-04-02T06:56:03;102007.00;;;2.65;100.00
76022;BME280;64718;52.124;6.226;2023-04-02T06:58:31;102017.31;;;2.69;100.00
76022;BME280;64718;52.124;6.226;2023-04-02T07:00:57;102017.34;;;2.74;100.00
76022;BME280;64718;52.124;6.226;2023-04-02T07:03:26;102024.22;;;2.76;100.00
76022;BME280;64718;52.124;6.226;2023-04-02T07:05:53;102035.38;;;2.80;100.00
76022;BME280;64718;52.124;6.226;2023-04-02T07:08:21;102034.50;;;2.78;100.00
76022;BME280;64718;52.124;6.226;2023-04-02T07:10:47;102044.81;;;2.82;100.00
76022;BME280;64718;52.124;6.226;2023-04-02T07:13:17;102050.78;;;2.78;100.00
76022;BME280;64718;52.124;6.226;2023-04-02T07:15:44;102053.53;;;2.95;100.00
76022;BME280;64718;52.124;6.226;2023-04-02T07:18:21;102067.25;;;2.97;100.00
76022;BME280;64718;52.124;6.226;2023-04-02T07:20:49;102063.66;;;2.83;100.00
76022;BME280;64718;52.124;6.226;2023-04-02T07:23:15;102064.41;;;2.71;100.00
76022;BME280;64718;52.124;6.226;2023-04-02T07:25:42;102078.88;;;2.62;100.00
76022;BME280;64718;52.124;6.226;2023-04-02T07:28:08;102081.38;;;2.54;100.00
76022;BME280;64718;52.124;6.226;2023-04-02T07:30:36;102090.78;;;2.55;100.00
76022;BME280;64718;52.124;6.226;2023-04-02T07:33:03;102092.50;;;2.53;100.00
76022;BME280;64718;52.124;6.226;2023-04-02T07:35:29;102094.25;;;2.57;100.00
76022;BME280;64718;52.124;6.226;2023-04-02T07:37:56;102102.03;;;2.66;100.00
76022;BME280;64718;52.124;6.226;2023-04-02T07:40:22;102115.75;;;2.67;100.00
76022;BME280;64718;52.124;6.226;2023-04-02T07:42:49;102108.88;;;2.66;100.00
76022;BME280;64718;52.124;6.226;2023-04-02T07:45:16;102111.53;;;2.73;100.00
76022;BME280;64718;52.124;6.226;2023-04-02T07:47:43;102121.84;;;2.79;100.00
76022;BME280;64718;52.124;6.226;2023-04-02T07:50:10;102114.22;;;2.87;100.00
76022;BME280;64718;52.124;6.226;2023-04-02T07:52:38;102119.47;;;2.96;100.00
76022;BME280;64718;52.124;6.226;2023-04-02T07:55:07;102123.88;;;3.09;100.00
76022;BME280;64718;52.124;6.226;2023-04-02T07:57:36;102123.88;;;3.08;100.00
76022;BME280;64718;52.124;6.226;2023-04-02T08:00:03;102128.19;;;3.12;100.00
76022;BME280;64718;52.124;6.226;2023-04-02T08:02:32;102119.75;;;3.28;100.00
76022;BME280;64718;52.124;6.226;2023-04-02T08:05:00;102128.44;;;3.45;100.00
76022;BME280;64718;52.124;6.226;2023-04-02T08:07:26;102138.00;;;3.57;100.00
76022;BME280;64718;52.124;6.226;2023-04-02T08:09:53;102132.75;;;3.46;100.00
76022;BME280;64718;52.124;6.226;2023-04-02T08:12:19;102140.44;;;3.45;100.00
76022;BME280;64718;52.124;6.226;2023-04-02T08:14:46;102144.88;;;3.61;100.00
76022;BME280;64718;52.124;6.226;2023-04-02T08:17:12;102157.84;;;3.78;100.00
76022;BME280;64718;52.124;6.226;2023-04-02T08:19:39;102157.91;;;3.87;100.00
76022;BME280;64718;52.124;6.226;2023-04-02T08:22:07;102161.41;;;4.00;100.00
76022;BME280;64718;52.124;6.226;2023-04-02T08:24:34;102162.28;;;4.03;100.00
76022;BME280;64718;52.124;6.226;2023-04-02T08:27:00;102177.00;;;4.18;100.00
76022;BME280;64718;52.124;6.226;2023-04-02T08:29:27;102160.69;;;4.21;100.00
76022;BME280;64718;52.124;6.226;2023-04-02T08:31:56;102168.47;;;4.33;100.00
76022;BME280;64718;52.124;6.226;2023-04-02T08:34:23;102176.13;;;4.16;100.00
76022;BME280;64718;52.124;6.226;2023-04-02T08:36:50;102177.06;;;4.32;100.00
76022;BME280;64718;52.124;6.226;2023-04-02T08:39:17;102175.34;;;4.32;100.00
76022;BME280;64718;52.124;6.226;2023-04-02T08:41:49;102183.16;;;4.58;100.00
76022;BME280;64718;52.124;6.226;2023-04-02T08:44:29;102188.41;;;4.70;100.00
76022;BME280;64718;52.124;6.226;2023-04-02T08:47:04;102198.69;;;4.63;100.00
76022;BME280;64718;52.124;6.226;2023-04-02T08:49:35;102207.28;;;4.65;100.00
76022;BME280;64718;52.124;6.226;2023-04-02T08:52:03;102212.34;;;4.53;100.00
76022;BME280;64718;52.124;6.226;2023-04-02T08:54:32;102217.59;;;4.69;100.00
76022;BME280;64718;52.124;6.226;2023-04-02T08:57:05;102222.66;;;4.53;100.00
76022;BME280;64718;52.124;6.226;2023-04-02T08:59:34;102229.47;;;4.44;100.00
76022;BME280;64718;52.124;6.226;2023-04-02T09:02:04;102242.38;;;4.46;100.00
76022;BME280;64718;52.124;6.226;2023-04-02T09:04:35;102248.97;;;4.04;100.00
76022;BME280;64718;52.124;6.226;2023-04-02T09:07:03;102256.78;;;4.13;100.00
76022;BME280;64718;52.124;6.226;2023-04-02T09:09:37;102258.63;;;4.36;100.00
76022;BME280;64718;52.124;6.226;2023-04-02T09:12:06;102262.09;;;4.39;100.00
76022;BME280;64718;52.124;6.226;2023-04-02T09:14:42;102263.84;;;4.47;100.00
76022;BME280;64718;52.124;6.226;2023-04-02T09:17:16;102270.72;;;4.46;100.00
76022;BME280;64718;52.124;6.226;2023-04-02T09:19:48;102282.69;;;4.39;100.00
76022;BME280;64718;52.124;6.226;2023-04-02T09:22:19;102289.53;;;4.33;100.00
76022;BME280;64718;52.124;6.226;2023-04-02T09:24:51;102289.50;;;4.30;100.00
76022;BME280;64718;52.124;6.226;2023-04-02T09:27:18;102292.72;;;4.04;99.92
76022;BME280;64718;52.124;6.226;2023-04-02T09:29:46;102294.97;;;3.63;100.00
76022;BME280;64718;52.124;6.226;2023-04-02T09:32:22;102307.44;;;3.30;100.00
76022;BME280;64718;52.124;6.226;2023-04-02T09:35:05;102308.22;;;4.07;99.93
76022;BME280;64718;52.124;6.226;2023-04-02T09:37:32;102301.56;;;4.37;96.61
76022;BME280;64718;52.124;6.226;2023-04-02T09:40:15;102305.31;;;4.88;97.11
76022;BME280;64718;52.124;6.226;2023-04-02T09:42:42;102296.78;;;5.07;95.10
76022;BME280;64718;52.124;6.226;2023-04-02T09:45:14;102299.28;;;4.89;95.85
76022;BME280;64718;52.124;6.226;2023-04-02T09:47:40;102296.75;;;4.98;95.46
76022;BME280;64718;52.124;6.226;2023-04-02T09:50:22;102294.31;;;5.37;94.36
76022;BME280;64718;52.124;6.226;2023-04-02T09:52:51;102286.69;;;5.89;90.86
76022;BME280;64718;52.124;6.226;2023-04-02T09:55:22;102292.69;;;6.07;85.97
76022;BME280;64718;52.124;6.226;2023-04-02T09:58:06;102300.38;;;5.73;88.38
76022;BME280;64718;52.124;6.226;2023-04-02T10:00:33;102305.53;;;5.75;88.40
76022;BME280;64718;52.124;6.226;2023-04-02T10:03:03;102314.06;;;5.29;87.69
76022;BME280;64718;52.124;6.226;2023-04-02T10:05:32;102314.97;;;5.42;90.29
76022;BME280;64718;52.124;6.226;2023-04-02T10:08:08;102321.88;;;5.57;90.05
76022;BME280;64718;52.124;6.226;2023-04-02T10:10:46;102316.72;;;5.58;91.67
76022;BME280;64718;52.124;6.226;2023-04-02T10:13:19;102339.91;;;5.46;89.45
76022;BME280;64718;52.124;6.226;2023-04-02T10:15:50;102345.06;;;5.43;91.19
76022;BME280;64718;52.124;6.226;2023-04-02T10:18:26;102350.28;;;5.61;90.47
76022;BME280;64718;52.124;6.226;2023-04-02T10:20:56;102355.38;;;5.40;87.65
76022;BME280;64718;52.124;6.226;2023-04-02T10:23:27;102347.69;;;5.57;88.10
76022;BME280;64718;52.124;6.226;2023-04-02T10:26:02;102344.31;;;5.85;86.23
76022;BME280;64718;52.124;6.226;2023-04-02T10:28:43;102352.94;;;6.30;87.19
76022;BME280;64718;52.124;6.226;2023-04-02T10:31:16;102359.84;;;6.52;86.64
76022;BME280;64718;52.124;6.226;2023-04-02T10:33:49;102351.25;;;6.41;85.62
76022;BME280;64718;52.124;6.226;2023-04-02T10:36:23;102365.03;;;6.46;82.81
76022;BME280;64718;52.124;6.226;2023-04-02T10:38:59;102363.31;;;6.45;85.32
76022;BME280;64718;52.124;6.226;2023-04-02T10:41:33;102370.19;;;6.52;82.35
76022;BME280;64718;52.124;6.226;2023-04-02T10:44:27;102372.75;;;6.57;87.14
76022;BME280;64718;52.124;6.226;2023-04-02T10:47:03;102377.94;;;6.16;85.08
76022;BME280;64718;52.124;6.226;2023-04-02T10:49:39;102372.75;;;6.31;87.49
76022;BME280;64718;52.124;6.226;2023-04-02T10:52:08;102380.53;;;6.52;85.02
76022;BME280;64718;52.124;6.226;2023-04-02T10:54:45;102383.06;;;6.75;87.11
76022;BME280;64718;52.124;6.226;2023-04-02T10:57:24;102386.53;;;6.70;84.63
76022;BME280;64718;52.124;6.226;2023-04-02T10:59:56;102388.28;;;6.45;84.86
76022;BME280;64718;52.124;6.226;2023-04-02T11:02:30;102391.72;;;6.66;84.96
76022;BME280;64718;52.124;6.226;2023-04-02T11:05:02;102401.16;;;6.96;83.60
76022;BME280;64718;52.124;6.226;2023-04-02T11:07:42;102392.50;;;7.10;82.74
76022;BME280;64718;52.124;6.226;2023-04-02T11:10:14;102401.09;;;7.15;78.90
76022;BME280;64718;52.124;6.226;2023-04-02T11:12:50;102405.34;;;7.34;80.22
76022;BME280;64718;52.124;6.226;2023-04-02T11:15:18;102397.56;;;7.34;77.52
76022;BME280;64718;52.124;6.226;2023-04-02T11:17:46;102401.88;;;7.37;77.96
76022;BME280;64718;52.124;6.226;2023-04-02T11:23:25;102417.91;;;8.12;78.35
76022;BME280;64718;52.124;6.226;2023-04-02T11:26:27;102413.63;;;7.99;78.76
76022;BME280;64718;52.124;6.226;2023-04-02T11:29:05;102409.50;;;7.72;78.68
76022;BME280;64718;52.124;6.226;2023-04-02T11:31:33;102421.56;;;7.76;77.43
76022;BME280;64718;52.124;6.226;2023-04-02T11:33:59;102426.69;;;7.85;77.89
76022;BME280;64718;52.124;6.226;2023-04-02T11:37:01;102427.66;;;7.67;75.08
76022;BME280;64718;52.124;6.226;2023-04-02T11:39:45;102432.84;;;7.63;80.76
76022;BME280;64718;52.124;6.226;2023-04-02T11:42:22;102427.59;;;7.73;81.17
76022;BME280;64718;52.124;6.226;2023-04-02T11:44:50;102429.25;;;7.88;81.36
76022;BME280;64718;52.124;6.226;2023-04-02T11:47:18;102424.91;;;7.93;73.66
76022;BME280;64718;52.124;6.226;2023-04-02T11:50:03;102429.22;;;7.91;78.39
76022;BME280;64718;52.124;6.226;2023-04-02T11:52:35;102427.63;;;7.69;77.87
76022;BME280;64718;52.124;6.226;2023-04-02T11:55:36;102431.72;;;8.06;76.76
76022;BME280;64718;52.124;6.226;2023-04-02T11:58:27;102425.66;;;8.13;75.37
76022;BME280;64718;52.124;6.226;2023-04-02T12:01:16;102433.34;;;8.27;76.62
76022;BME280;64718;52.124;6.226;2023-04-02T12:04:00;102430.00;;;8.10;75.70
76022;BME280;64718;52.124;6.226;2023-04-02T12:06:42;102422.97;;;8.25;78.40
76022;BME280;64718;52.124;6.226;2023-04-02T12:09:18;102425.31;;;8.61;78.15
76022;BME280;64718;52.124;6.226;2023-04-02T12:11:47;102433.84;;;8.75;77.89
76022;BME280;64718;52.124;6.226;2023-04-02T12:14:36;102430.63;;;8.44;75.83
76022;BME280;64718;52.124;6.226;2023-04-02T12:17:16;102440.94;;;8.51;76.21
76022;BME280;64718;52.124;6.226;2023-04-02T12:19:46;102448.47;;;8.83;76.32
76022;BME280;64718;52.124;6.226;2023-04-02T12:22:18;102443.47;;;8.57;74.44
76022;BME280;64718;52.124;6.226;2023-04-02T12:24:46;102456.38;;;8.67;76.29
76022;BME280;64718;52.124;6.226;2023-04-02T12:27:16;102453.66;;;8.82;72.74
76022;BME280;64718;52.124;6.226;2023-04-02T12:29:47;102457.16;;;8.78;71.70
76022;BME280;64718;52.124;6.226;2023-04-02T12:32:19;102461.38;;;8.90;73.20
76022;BME280;64718;52.124;6.226;2023-04-02T12:34:47;102464.69;;;9.04;72.39
76022;BME280;64718;52.124;6.226;2023-04-02T12:37:23;102468.09;;;9.10;70.27
76022;BME280;64718;52.124;6.226;2023-04-02T12:39:52;102466.56;;;8.90;70.81
76022;BME280;64718;52.124;6.226;2023-04-02T12:42:28;102470.94;;;8.86;71.65
76022;BME280;64718;52.124;6.226;2023-04-02T12:44:56;102478.81;;;8.74;68.99
76022;BME280;64718;52.124;6.226;2023-04-02T12:47:24;102473.25;;;9.12;74.47
76022;BME280;64718;52.124;6.226;2023-04-02T12:49:51;102472.34;;;9.17;70.10
76022;BME280;64718;52.124;6.226;2023-04-02T12:52:20;102469.97;;;8.95;71.75
76022;BME280;64718;52.124;6.226;2023-04-02T12:54:50;102478.47;;;9.09;68.33
76022;BME280;64718;52.124;6.226;2023-04-02T12:57:35;102492.19;;;9.23;67.86
76022;BME280;64718;52.124;6.226;2023-04-02T13:03:18;102484.28;;;9.35;67.17
76022;BME280;64718;52.124;6.226;2023-04-02T13:05:48;102491.81;;;9.57;68.07
76022;BME280;64718;52.124;6.226;2023-04-02T13:08:18;102491.72;;;9.64;69.63
76022;BME280;64718;52.124;6.226;2023-04-02T13:10:45;102484.78;;;9.66;70.02
76022;BME280;64718;52.124;6.226;2023-04-02T13:13:21;102481.19;;;9.75;69.56
76022;BME280;64718;52.124;6.226;2023-04-02T13:16:02;102477.63;;;9.85;74.83
76022;BME280;64718;52.124;6.226;2023-04-02T13:18:34;102483.66;;;9.87;65.64
76022;BME280;64718;52.124;6.226;2023-04-02T13:21:02;102489.75;;;9.86;66.98
76022;BME280;64718;52.124;6.226;2023-04-02T13:23:34;102497.72;;;9.69;65.96
76022;BME280;64718;52.124;6.226;2023-04-02T13:26:10;102491.66;;;9.70;67.48